Huvudsida
METAR-TAF:

METAR-TAF

Flygplatser :

Kristiansunds flygplats. Kvernberget

Kristiansunds, Norge

latitud: 63-07N, longitud: 007-50E, höjd: 6 m

Aktuellt väderrapport

Denna rapport gjordes för 14 minuter sedan, klockan 19:20 UTC
Vind 12 kt från väst/sydväst
Temperatur 11°C
Fuktighet 82%
Tryck 1025 hPa
Sikt 10 km eller mer
Brutna moln på en höjd av 2400 ft

METAR: ENKB 251920Z 25012KT 9999 BKN024 11/08 Q1025 RMK WIND 745FT 26020KT

Tid: 21:34 (19:34 UTC)

Väderprognos

Denna rapport gjordes för 2 timmar och 34 minuter sedan, klockan 17:00 UTC
Prognos gäller från 25 kl. 18 UTC till 25 kl. 21 UTC
Vind 15 kt från väst/sydväst
Sikt 10 km eller mer
Få moln på en höjd av 1000 ft
Brutna moln på en höjd av 2500 ft
Sannolikhet 40%
från 25 kl. 19 UTC till 25 kl. 21 UTC
Brutna moln på en höjd av 800 ft

TAF: ENKB 251700Z 2518/2521 25015KT 9999 FEW010 BKN025 PROB40 2519/2521 BKN008

Aktuella väderrapporter och prognoser från 4000 flygplatser (METAR- och TAF-rapporter).

De tillgängliga stationerna syns som gula och röda prickar på kartan.

För musen över prickarna för att se namnen på stationerna.

Klicka sedan för att få väderrapporter och prognoser.

För att ändra kartan: Klicka på de gröna knapparna med ett svart kors på för att zooma in; den gröna knappen med ett streck på för att zooma ut; eller på de gröna pilarna för angränsande kartor.


METAR-TAF: